sensor_id;sensor_type;location;lat;lon;timestamp;pressure;altitude;pressure_sealevel;temperature;humidity
72414;BME280;60995;52.154;4.498;2023-08-17T00:00:27;102722.19;;;19.44;100.00
72414;BME280;60995;52.154;4.498;2023-08-17T00:02:43;102721.63;;;19.40;100.00
72414;BME280;60995;52.154;4.498;2023-08-17T00:05:00;102716.44;;;19.27;100.00
72414;BME280;60995;52.154;4.498;2023-08-17T00:07:16;102724.41;;;19.30;100.00
72414;BME280;60995;52.154;4.498;2023-08-17T00:09:35;102723.06;;;19.34;100.00
72414;BME280;60995;52.154;4.498;2023-08-17T00:11:51;102730.22;;;19.27;100.00
72414;BME280;60995;52.154;4.498;2023-08-17T00:14:07;102723.22;;;19.33;100.00
72414;BME280;60995;52.154;4.498;2023-08-17T00:16:24;102723.69;;;19.28;100.00
72414;BME280;60995;52.154;4.498;2023-08-17T00:18:40;102738.03;;;19.22;100.00
72414;BME280;60995;52.154;4.498;2023-08-17T00:20:57;102729.06;;;19.20;100.00
72414;BME280;60995;52.154;4.498;2023-08-17T00:23:13;102730.25;;;19.08;100.00
72414;BME280;60995;52.154;4.498;2023-08-17T00:25:30;102725.31;;;19.11;100.00
72414;BME280;60995;52.154;4.498;2023-08-17T00:27:46;102732.53;;;19.12;100.00
72414;BME280;60995;52.154;4.498;2023-08-17T00:30:03;102733.44;;;19.03;100.00
72414;BME280;60995;52.154;4.498;2023-08-17T00:32:19;102723.31;;;19.04;100.00
72414;BME280;60995;52.154;4.498;2023-08-17T00:34:36;102720.25;;;19.07;100.00
72414;BME280;60995;52.154;4.498;2023-08-17T00:36:52;102721.72;;;19.01;100.00
72414;BME280;60995;52.154;4.498;2023-08-17T00:39:08;102714.91;;;18.95;100.00
72414;BME280;60995;52.154;4.498;2023-08-17T00:41:25;102723.59;;;19.00;100.00
72414;BME280;60995;52.154;4.498;2023-08-17T00:43:41;102710.25;;;19.06;100.00
72414;BME280;60995;52.154;4.498;2023-08-17T00:45:57;102712.31;;;19.04;100.00
72414;BME280;60995;52.154;4.498;2023-08-17T00:48:14;102710.72;;;19.01;100.00
72414;BME280;60995;52.154;4.498;2023-08-17T00:50:32;102701.47;;;18.92;100.00
72414;BME280;60995;52.154;4.498;2023-08-17T00:52:50;102707.97;;;18.91;100.00
72414;BME280;60995;52.154;4.498;2023-08-17T00:55:09;102704.78;;;18.96;100.00
72414;BME280;60995;52.154;4.498;2023-08-17T00:57:28;102708.84;;;18.92;100.00
72414;BME280;60995;52.154;4.498;2023-08-17T00:59:44;102708.25;;;18.88;100.00
72414;BME280;60995;52.154;4.498;2023-08-17T01:02:01;102719.81;;;18.82;100.00
72414;BME280;60995;52.154;4.498;2023-08-17T01:04:18;102717.66;;;18.85;100.00
72414;BME280;60995;52.154;4.498;2023-08-17T01:06:34;102724.16;;;18.84;100.00
72414;BME280;60995;52.154;4.498;2023-08-17T01:08:50;102724.47;;;18.72;100.00
72414;BME280;60995;52.154;4.498;2023-08-17T01:11:36;102721.56;;;18.83;100.00
72414;BME280;60995;52.154;4.498;2023-08-17T01:14:02;102723.00;;;18.87;100.00
72414;BME280;60995;52.154;4.498;2023-08-17T01:16:27;102723.59;;;18.81;100.00
72414;BME280;60995;52.154;4.498;2023-08-17T01:18:48;102725.63;;;18.69;100.00
72414;BME280;60995;52.154;4.498;2023-08-17T01:21:10;102725.31;;;18.82;100.00
72414;BME280;60995;52.154;4.498;2023-08-17T01:23:28;102719.13;;;18.80;100.00
72414;BME280;60995;52.154;4.498;2023-08-17T01:25:44;102721.16;;;18.58;100.00
72414;BME280;60995;52.154;4.498;2023-08-17T01:28:02;102729.25;;;18.60;100.00
72414;BME280;60995;52.154;4.498;2023-08-17T01:30:19;102728.81;;;18.64;100.00
72414;BME280;60995;52.154;4.498;2023-08-17T01:35:31;102735.19;;;18.55;100.00
72414;BME280;60995;52.154;4.498;2023-08-17T01:37:55;102735.59;;;18.60;100.00
72414;BME280;60995;52.154;4.498;2023-08-17T01:40:20;102728.81;;;18.45;100.00
72414;BME280;60995;52.154;4.498;2023-08-17T01:42:38;102737.78;;;18.47;100.00
72414;BME280;60995;52.154;4.498;2023-08-17T01:44:55;102733.44;;;18.54;100.00
72414;BME280;60995;52.154;4.498;2023-08-17T01:47:11;102736.63;;;18.40;100.00
72414;BME280;60995;52.154;4.498;2023-08-17T01:49:28;102736.88;;;18.37;100.00
72414;BME280;60995;52.154;4.498;2023-08-17T01:51:44;102731.25;;;18.38;100.00
72414;BME280;60995;52.154;4.498;2023-08-17T01:54:00;102727.94;;;18.44;100.00
72414;BME280;60995;52.154;4.498;2023-08-17T01:56:17;102733.72;;;18.41;100.00
72414;BME280;60995;52.154;4.498;2023-08-17T01:58:33;102726.19;;;18.33;100.00
72414;BME280;60995;52.154;4.498;2023-08-17T02:00:49;102725.31;;;18.23;100.00
72414;BME280;60995;52.154;4.498;2023-08-17T02:03:06;102730.25;;;18.29;100.00
72414;BME280;60995;52.154;4.498;2023-08-17T02:05:22;102733.69;;;18.31;100.00
72414;BME280;60995;52.154;4.498;2023-08-17T02:07:38;102731.09;;;18.30;100.00
72414;BME280;60995;52.154;4.498;2023-08-17T02:09:54;102728.50;;;18.28;100.00
72414;BME280;60995;52.154;4.498;2023-08-17T02:12:11;102726.59;;;18.19;100.00
72414;BME280;60995;52.154;4.498;2023-08-17T02:14:27;102725.31;;;18.13;100.00
72414;BME280;60995;52.154;4.498;2023-08-17T02:16:43;102728.56;;;17.97;100.00
72414;BME280;60995;52.154;4.498;2023-08-17T02:18:59;102730.03;;;18.01;100.00
72414;BME280;60995;52.154;4.498;2023-08-17T02:21:16;102728.47;;;18.09;100.00
72414;BME280;60995;52.154;4.498;2023-08-17T02:23:32;102731.94;;;18.11;100.00
72414;BME280;60995;52.154;4.498;2023-08-17T02:25:48;102732.81;;;18.21;100.00
72414;BME280;60995;52.154;4.498;2023-08-17T02:28:05;102735.00;;;18.17;100.00
72414;BME280;60995;52.154;4.498;2023-08-17T02:30:21;102747.59;;;18.20;100.00
72414;BME280;60995;52.154;4.498;2023-08-17T02:32:37;102741.50;;;18.26;100.00
72414;BME280;60995;52.154;4.498;2023-08-17T02:34:54;102737.03;;;18.25;100.00
72414;BME280;60995;52.154;4.498;2023-08-17T02:37:10;102735.00;;;18.17;100.00
72414;BME280;60995;52.154;4.498;2023-08-17T02:39:26;102737.16;;;18.14;100.00
72414;BME280;60995;52.154;4.498;2023-08-17T02:41:43;102743.69;;;18.32;100.00
72414;BME280;60995;52.154;4.498;2023-08-17T02:44:01;102743.25;;;18.17;100.00
72414;BME280;60995;52.154;4.498;2023-08-17T02:46:18;102740.31;;;18.09;100.00
72414;BME280;60995;52.154;4.498;2023-08-17T02:48:34;102740.59;;;18.06;100.00
72414;BME280;60995;52.154;4.498;2023-08-17T02:50:50;102744.66;;;18.02;100.00
72414;BME280;60995;52.154;4.498;2023-08-17T02:53:06;102741.31;;;17.98;100.00
72414;BME280;60995;52.154;4.498;2023-08-17T02:55:22;102736.28;;;18.13;100.00
72414;BME280;60995;52.154;4.498;2023-08-17T02:57:39;102746.94;;;18.07;100.00
72414;BME280;60995;52.154;4.498;2023-08-17T02:59:55;102745.53;;;18.12;100.00
72414;BME280;60995;52.154;4.498;2023-08-17T03:02:11;102744.34;;;18.05;100.00
72414;BME280;60995;52.154;4.498;2023-08-17T03:04:27;102751.88;;;18.03;100.00
72414;BME280;60995;52.154;4.498;2023-08-17T03:06:44;102749.69;;;18.07;100.00
72414;BME280;60995;52.154;4.498;2023-08-17T03:09:00;102748.38;;;18.01;100.00
72414;BME280;60995;52.154;4.498;2023-08-17T03:11:17;102744.09;;;18.08;100.00
72414;BME280;60995;52.154;4.498;2023-08-17T03:13:33;102745.94;;;18.08;100.00
72414;BME280;60995;52.154;4.498;2023-08-17T03:15:49;102756.22;;;18.06;100.00
72414;BME280;60995;52.154;4.498;2023-08-17T03:18:06;102742.75;;;18.02;100.00
72414;BME280;60995;52.154;4.498;2023-08-17T03:20:22;102745.81;;;18.09;100.00
72414;BME280;60995;52.154;4.498;2023-08-17T03:22:38;102740.19;;;18.11;100.00
72414;BME280;60995;52.154;4.498;2023-08-17T03:24:55;102743.66;;;18.13;100.00
72414;BME280;60995;52.154;4.498;2023-08-17T03:27:11;102740.06;;;18.22;100.00
72414;BME280;60995;52.154;4.498;2023-08-17T03:29:27;102738.44;;;18.19;100.00
72414;BME280;60995;52.154;4.498;2023-08-17T03:31:44;102737.44;;;18.21;100.00
72414;BME280;60995;52.154;4.498;2023-08-17T03:34:00;102742.66;;;18.24;100.00
72414;BME280;60995;52.154;4.498;2023-08-17T03:36:17;102736.16;;;18.25;100.00
72414;BME280;60995;52.154;4.498;2023-08-17T03:38:33;102742.34;;;18.17;100.00
72414;BME280;60995;52.154;4.498;2023-08-17T03:40:49;102728.91;;;18.24;100.00
72414;BME280;60995;52.154;4.498;2023-08-17T03:43:05;102738.31;;;18.11;100.00
72414;BME280;60995;52.154;4.498;2023-08-17T03:45:22;102737.84;;;18.06;100.00
72414;BME280;60995;52.154;4.498;2023-08-17T03:47:38;102747.53;;;18.10;100.00
72414;BME280;60995;52.154;4.498;2023-08-17T03:49:54;102741.47;;;18.07;100.00
72414;BME280;60995;52.154;4.498;2023-08-17T03:52:11;102739.59;;;18.17;100.00
72414;BME280;60995;52.154;4.498;2023-08-17T03:54:27;102735.97;;;18.07;100.00
72414;BME280;60995;52.154;4.498;2023-08-17T03:56:43;102739.44;;;18.09;100.00
72414;BME280;60995;52.154;4.498;2023-08-17T03:58:59;102739.44;;;18.09;100.00
72414;BME280;60995;52.154;4.498;2023-08-17T04:01:15;102737.69;;;17.98;100.00
72414;BME280;60995;52.154;4.498;2023-08-17T04:03:32;102734.59;;;17.91;100.00
72414;BME280;60995;52.154;4.498;2023-08-17T04:05:48;102731.84;;;17.91;100.00
72414;BME280;60995;52.154;4.498;2023-08-17T04:08:04;102741.09;;;17.90;100.00
72414;BME280;60995;52.154;4.498;2023-08-17T04:10:21;102745.16;;;17.86;100.00
72414;BME280;60995;52.154;4.498;2023-08-17T04:12:37;102747.69;;;17.78;100.00
72414;BME280;60995;52.154;4.498;2023-08-17T04:14:53;102732.81;;;17.71;100.00
72414;BME280;60995;52.154;4.498;2023-08-17T04:17:09;102744.50;;;17.73;100.00
72414;BME280;60995;52.154;4.498;2023-08-17T04:19:26;102751.72;;;17.74;100.00
72414;BME280;60995;52.154;4.498;2023-08-17T04:21:42;102753.72;;;17.72;100.00
72414;BME280;60995;52.154;4.498;2023-08-17T04:23:58;102745.38;;;17.73;100.00
72414;BME280;60995;52.154;4.498;2023-08-17T04:26:14;102744.78;;;17.69;100.00
72414;BME280;60995;52.154;4.498;2023-08-17T04:28:31;102747.69;;;17.78;100.00
72414;BME280;60995;52.154;4.498;2023-08-17T04:30:47;102748.81;;;17.65;100.00
72414;BME280;60995;52.154;4.498;2023-08-17T04:33:04;102750.59;;;17.76;100.00
72414;BME280;60995;52.154;4.498;2023-08-17T04:35:21;102746.00;;;17.86;100.00
72414;BME280;60995;52.154;4.498;2023-08-17T04:37:37;102740.38;;;17.88;100.00
72414;BME280;60995;52.154;4.498;2023-08-17T04:39:53;102748.59;;;17.88;100.00
72414;BME280;60995;52.154;4.498;2023-08-17T04:42:10;102744.34;;;18.05;100.00
72414;BME280;60995;52.154;4.498;2023-08-17T04:44:26;102746.25;;;18.05;100.00
72414;BME280;60995;52.154;4.498;2023-08-17T04:46:42;102746.59;;;17.90;100.00
72414;BME280;60995;52.154;4.498;2023-08-17T04:48:59;102738.56;;;17.98;100.00
72414;BME280;60995;52.154;4.498;2023-08-17T04:51:15;102741.31;;;17.98;100.00
72414;BME280;60995;52.154;4.498;2023-08-17T04:53:31;102748.38;;;18.01;100.00
72414;BME280;60995;52.154;4.498;2023-08-17T04:55:47;102742.34;;;18.07;100.00
72414;BME280;60995;52.154;4.498;2023-08-17T04:58:04;102733.09;;;18.18;100.00
72414;BME280;60995;52.154;4.498;2023-08-17T05:00:20;102736.03;;;18.36;100.00
72414;BME280;60995;52.154;4.498;2023-08-17T05:02:43;102736.88;;;18.27;100.00
72414;BME280;60995;52.154;4.498;2023-08-17T05:04:59;102733.41;;;18.25;100.00
72414;BME280;60995;52.154;4.498;2023-08-17T05:07:15;102729.06;;;18.22;100.00
72414;BME280;60995;52.154;4.498;2023-08-17T05:09:32;102722.16;;;18.38;100.00
72414;BME280;60995;52.154;4.498;2023-08-17T05:11:48;102714.91;;;18.56;100.00
72414;BME280;60995;52.154;4.498;2023-08-17T05:14:04;102714.03;;;18.65;100.00
72414;BME280;60995;52.154;4.498;2023-08-17T05:16:20;102707.53;;;18.66;100.00
72414;BME280;60995;52.154;4.498;2023-08-17T05:18:38;102696.38;;;18.78;100.00
72414;BME280;60995;52.154;4.498;2023-08-17T05:20:54;102699.59;;;18.63;100.00
72414;BME280;60995;52.154;4.498;2023-08-17T05:23:10;102696.97;;;18.72;100.00
72414;BME280;60995;52.154;4.498;2023-08-17T05:25:27;102701.16;;;18.76;100.00
72414;BME280;60995;52.154;4.498;2023-08-17T05:27:45;102705.66;;;18.57;100.00
72414;BME280;60995;52.154;4.498;2023-08-17T05:30:01;102708.84;;;18.72;100.00
72414;BME280;60995;52.154;4.498;2023-08-17T05:32:18;102705.78;;;18.85;100.00
72414;BME280;60995;52.154;4.498;2023-08-17T05:34:34;102703.03;;;18.85;100.00
72414;BME280;60995;52.154;4.498;2023-08-17T05:36:50;102700.72;;;18.90;100.00
72414;BME280;60995;52.154;4.498;2023-08-17T05:39:06;102696.38;;;18.78;100.00
72414;BME280;60995;52.154;4.498;2023-08-17T05:41:22;102699.88;;;18.80;100.00
72414;BME280;60995;52.154;4.498;2023-08-17T05:43:39;102694.66;;;18.96;100.00
72414;BME280;60995;52.154;4.498;2023-08-17T05:45:57;102694.38;;;18.99;100.00
72414;BME280;60995;52.154;4.498;2023-08-17T05:48:15;102690.88;;;18.97;100.00
72414;BME280;60995;52.154;4.498;2023-08-17T05:50:31;102695.06;;;19.01;100.00
72414;BME280;60995;52.154;4.498;2023-08-17T05:52:47;102696.22;;;19.09;100.00
72414;BME280;60995;52.154;4.498;2023-08-17T05:55:05;102692.53;;;19.28;100.00
72414;BME280;60995;52.154;4.498;2023-08-17T05:57:21;102689.34;;;19.32;100.00
72414;BME280;60995;52.154;4.498;2023-08-17T05:59:38;102687.44;;;19.71;100.00
72414;BME280;60995;52.154;4.498;2023-08-17T06:01:54;102682.31;;;19.76;100.00
72414;BME280;60995;52.154;4.498;2023-08-17T06:04:11;102679.00;;;19.82;100.00
72414;BME280;60995;52.154;4.498;2023-08-17T06:06:27;102670.81;;;19.90;100.00
72414;BME280;60995;52.154;4.498;2023-08-17T06:08:44;102668.38;;;19.87;100.00
72414;BME280;60995;52.154;4.498;2023-08-17T06:11:00;102665.56;;;19.97;100.00
72414;BME280;60995;52.154;4.498;2023-08-17T06:13:16;102667.47;;;20.14;100.00
72414;BME280;60995;52.154;4.498;2023-08-17T06:15:33;102668.34;;;20.15;100.00
72414;BME280;60995;52.154;4.498;2023-08-17T06:17:49;102668.03;;;20.18;100.00
72414;BME280;60995;52.154;4.498;2023-08-17T06:20:06;102663.28;;;20.28;100.00
72414;BME280;60995;52.154;4.498;2023-08-17T06:22:25;102667.03;;;20.63;100.00
72414;BME280;60995;52.154;4.498;2023-08-17T06:24:41;102651.97;;;20.31;100.00
72414;BME280;60995;52.154;4.498;2023-08-17T06:26:58;102664.88;;;20.13;100.00
72414;BME280;60995;52.154;4.498;2023-08-17T06:29:14;102678.69;;;19.85;100.00
72414;BME280;60995;52.154;4.498;2023-08-17T06:31:30;102685.94;;;19.76;100.00
72414;BME280;60995;52.154;4.498;2023-08-17T06:33:46;102689.41;;;19.88;100.00
72414;BME280;60995;52.154;4.498;2023-08-17T06:36:03;102691.41;;;19.96;100.00
72414;BME280;60995;52.154;4.498;2023-08-17T06:38:19;102695.66;;;19.80;100.00
72414;BME280;60995;52.154;4.498;2023-08-17T06:40:35;102703.50;;;20.03;100.00
72414;BME280;60995;52.154;4.498;2023-08-17T06:42:52;102694.78;;;20.08;100.00
72414;BME280;60995;52.154;4.498;2023-08-17T06:45:10;102673.91;;;20.41;100.00
72414;BME280;60995;52.154;4.498;2023-08-17T06:47:26;102668.91;;;20.37;100.00
72414;BME280;60995;52.154;4.498;2023-08-17T06:49:42;102672.69;;;20.72;100.00
72414;BME280;60995;52.154;4.498;2023-08-17T06:51:59;102666.00;;;21.01;100.00
72414;BME280;60995;52.154;4.498;2023-08-17T06:54:15;102658.69;;;20.91;100.00
72414;BME280;60995;52.154;4.498;2023-08-17T06:56:31;102647.06;;;20.79;100.00
72414;BME280;60995;52.154;4.498;2023-08-17T06:58:48;102653.03;;;21.01;100.00
72414;BME280;60995;52.154;4.498;2023-08-17T07:01:04;102640.88;;;21.12;100.00
72414;BME280;60995;52.154;4.498;2023-08-17T07:03:20;102654.13;;;20.82;100.00
72414;BME280;60995;52.154;4.498;2023-08-17T07:05:36;102654.75;;;20.94;100.00
72414;BME280;60995;52.154;4.498;2023-08-17T07:07:53;102649.47;;;21.09;100.00
72414;BME280;60995;52.154;4.498;2023-08-17T07:10:10;102633.75;;;21.36;100.00
72414;BME280;60995;52.154;4.498;2023-08-17T07:12:26;102612.31;;;21.29;100.00
72414;BME280;60995;52.154;4.498;2023-08-17T07:14:44;102608.97;;;21.09;100.00
72414;BME280;60995;52.154;4.498;2023-08-17T07:17:00;102599.00;;;21.59;100.00
72414;BME280;60995;52.154;4.498;2023-08-17T07:19:16;102587.34;;;21.98;100.00
72414;BME280;60995;52.154;4.498;2023-08-17T07:21:32;102558.09;;;23.89;100.00
72414;BME280;60995;52.154;4.498;2023-08-17T07:23:50;102503.69;;;23.42;100.00
72414;BME280;60995;52.154;4.498;2023-08-17T07:26:07;102516.00;;;22.10;100.00
72414;BME280;60995;52.154;4.498;2023-08-17T07:28:23;102530.66;;;22.52;100.00
72414;BME280;60995;52.154;4.498;2023-08-17T07:30:40;102522.38;;;22.52;100.00
72414;BME280;60995;52.154;4.498;2023-08-17T07:32:56;102529.09;;;22.58;100.00
72414;BME280;60995;52.154;4.498;2023-08-17T07:35:12;102535.19;;;22.45;100.00
72414;BME280;60995;52.154;4.498;2023-08-17T07:37:28;102538.44;;;22.57;100.00
72414;BME280;60995;52.154;4.498;2023-08-17T07:39:48;102543.47;;;22.28;100.00
72414;BME280;60995;52.154;4.498;2023-08-17T07:42:05;102528.56;;;22.62;100.00
72414;BME280;60995;52.154;4.498;2023-08-17T07:44:21;102524.03;;;22.78;100.00
72414;BME280;60995;52.154;4.498;2023-08-17T07:46:37;102512.63;;;23.12;100.00
72414;BME280;60995;52.154;4.498;2023-08-17T07:48:54;102491.56;;;23.43;100.00
72414;BME280;60995;52.154;4.498;2023-08-17T07:51:10;102476.03;;;24.56;100.00
72414;BME280;60995;52.154;4.498;2023-08-17T07:53:26;102439.47;;;25.56;100.00
72414;BME280;60995;52.154;4.498;2023-08-17T07:55:42;102366.84;;;27.60;100.00
72414;BME280;60995;52.154;4.498;2023-08-17T07:57:59;102326.53;;;27.82;100.00
72414;BME280;60995;52.154;4.498;2023-08-17T08:00:15;102327.34;;;28.62;100.00
72414;BME280;60995;52.154;4.498;2023-08-17T08:02:32;102286.22;;;29.83;100.00
72414;BME280;60995;52.154;4.498;2023-08-17T08:04:48;102250.09;;;30.80;100.00
72414;BME280;60995;52.154;4.498;2023-08-17T08:07:05;102226.53;;;31.82;100.00
72414;BME280;60995;52.154;4.498;2023-08-17T08:09:22;102198.38;;;31.30;100.00
72414;BME280;60995;52.154;4.498;2023-08-17T08:11:38;102224.50;;;32.07;97.47
72414;BME280;60995;52.154;4.498;2023-08-17T08:13:54;102235.50;;;33.29;94.59
72414;BME280;60995;52.154;4.498;2023-08-17T08:16:10;102184.66;;;32.51;94.60
72414;BME280;60995;52.154;4.498;2023-08-17T08:18:27;102146.72;;;31.90;95.38
72414;BME280;60995;52.154;4.498;2023-08-17T08:20:43;102108.28;;;32.37;91.61
72414;BME280;60995;52.154;4.498;2023-08-17T08:22:59;102124.28;;;30.36;97.60
72414;BME280;60995;52.154;4.498;2023-08-17T08:25:16;102119.13;;;30.51;96.56
72414;BME280;60995;52.154;4.498;2023-08-17T08:27:32;102102.94;;;31.01;94.94
72414;BME280;60995;52.154;4.498;2023-08-17T08:29:48;102103.19;;;30.76;93.03
72414;BME280;60995;52.154;4.498;2023-08-17T08:32:04;102106.72;;;30.95;92.82
72414;BME280;60995;52.154;4.498;2023-08-17T08:34:21;102137.16;;;28.13;100.00
72414;BME280;60995;52.154;4.498;2023-08-17T08:36:37;102150.38;;;28.31;100.00
72414;BME280;60995;52.154;4.498;2023-08-17T08:38:53;102152.47;;;28.35;100.00
72414;BME280;60995;52.154;4.498;2023-08-17T08:41:11;102119.25;;;30.14;100.00
72414;BME280;60995;52.154;4.498;2023-08-17T08:43:28;102108.81;;;30.88;95.17
72414;BME280;60995;52.154;4.498;2023-08-17T08:45:45;102100.66;;;30.74;92.48
72414;BME280;60995;52.154;4.498;2023-08-17T08:48:02;102099.44;;;30.94;91.27
72414;BME280;60995;52.154;4.498;2023-08-17T08:50:21;102089.66;;;31.73;87.97
72414;BME280;60995;52.154;4.498;2023-08-17T08:52:46;102086.16;;;31.54;87.75
72414;BME280;60995;52.154;4.498;2023-08-17T08:55:17;102095.69;;;30.34;91.23
72414;BME280;60995;52.154;4.498;2023-08-17T08:57:35;102091.38;;;30.50;93.68
72414;BME280;60995;52.154;4.498;2023-08-17T08:59:53;102093.81;;;30.70;89.82
72414;BME280;60995;52.154;4.498;2023-08-17T09:02:15;102085.63;;;32.26;84.30
72414;BME280;60995;52.154;4.498;2023-08-17T09:04:32;102076.59;;;31.78;85.14
72414;BME280;60995;52.154;4.498;2023-08-17T09:06:50;102072.84;;;30.84;88.09
72414;BME280;60995;52.154;4.498;2023-08-17T09:09:07;102068.59;;;30.58;88.30
72414;BME280;60995;52.154;4.498;2023-08-17T09:11:24;102060.53;;;31.09;87.55
72414;BME280;60995;52.154;4.498;2023-08-17T09:13:41;102066.88;;;30.03;91.52
72414;BME280;60995;52.154;4.498;2023-08-17T09:15:58;102041.03;;;31.14;87.39
72414;BME280;60995;52.154;4.498;2023-08-17T09:18:17;102046.41;;;30.92;88.02
72414;BME280;60995;52.154;4.498;2023-08-17T09:22:55;102023.06;;;32.65;82.41
72414;BME280;60995;52.154;4.498;2023-08-17T09:25:22;102025.19;;;32.58;83.37
72414;BME280;60995;52.154;4.498;2023-08-17T09:27:39;102027.16;;;32.57;82.42
72414;BME280;60995;52.154;4.498;2023-08-17T09:30:08;102034.97;;;31.46;85.35
72414;BME280;60995;52.154;4.498;2023-08-17T09:32:30;102042.84;;;29.16;94.78
72414;BME280;60995;52.154;4.498;2023-08-17T09:34:49;102034.66;;;29.70;97.03
72414;BME280;60995;52.154;4.498;2023-08-17T09:37:05;102024.31;;;30.13;92.92
72414;BME280;60995;52.154;4.498;2023-08-17T09:39:21;102025.31;;;30.18;90.78
72414;BME280;60995;52.154;4.498;2023-08-17T09:41:38;102032.63;;;29.59;94.57
72414;BME280;60995;52.154;4.498;2023-08-17T09:43:57;102030.03;;;29.45;94.72
72414;BME280;60995;52.154;4.498;2023-08-17T09:46:14;102022.28;;;29.29;95.05
72414;BME280;60995;52.154;4.498;2023-08-17T09:48:30;102025.09;;;29.29;96.64
72414;BME280;60995;52.154;4.498;2023-08-17T09:50:47;102011.25;;;29.15;95.34
72414;BME280;60995;52.154;4.498;2023-08-17T09:53:04;102022.19;;;28.04;100.00
72414;BME280;60995;52.154;4.498;2023-08-17T09:55:23;102043.41;;;27.66;100.00
72414;BME280;60995;52.154;4.498;2023-08-17T09:57:41;102029.88;;;28.34;100.00
72414;BME280;60995;52.154;4.498;2023-08-17T09:59:58;102011.09;;;29.10;100.00
72414;BME280;60995;52.154;4.498;2023-08-17T10:02:19;102013.41;;;29.50;100.00
72414;BME280;60995;52.154;4.498;2023-08-17T10:04:39;102013.44;;;31.35;92.90
72414;BME280;60995;52.154;4.498;2023-08-17T10:07:00;102005.78;;;31.59;87.19
72414;BME280;60995;52.154;4.498;2023-08-17T10:09:24;102014.16;;;29.58;94.72
72414;BME280;60995;52.154;4.498;2023-08-17T10:11:45;102014.88;;;29.53;94.99
72414;BME280;60995;52.154;4.498;2023-08-17T10:14:13;102015.91;;;28.84;98.40
72414;BME280;60995;52.154;4.498;2023-08-17T10:16:46;102021.84;;;27.87;100.00
72414;BME280;60995;52.154;4.498;2023-08-17T10:19:25;102015.19;;;28.45;100.00
72414;BME280;60995;52.154;4.498;2023-08-17T10:22:20;102007.59;;;28.52;100.00
72414;BME280;60995;52.154;4.498;2023-08-17T10:24:45;102002.09;;;28.90;100.00
72414;BME280;60995;52.154;4.498;2023-08-17T10:27:04;101988.56;;;29.73;96.86
72414;BME280;60995;52.154;4.498;2023-08-17T10:29:23;102002.44;;;28.31;100.00
72414;BME280;60995;52.154;4.498;2023-08-17T10:31:44;101993.53;;;29.03;100.00
72414;BME280;60995;52.154;4.498;2023-08-17T10:34:03;101988.91;;;29.15;100.00
72414;BME280;60995;52.154;4.498;2023-08-17T10:36:20;102000.97;;;29.46;97.22
72414;BME280;60995;52.154;4.498;2023-08-17T10:38:38;101990.00;;;30.17;93.87
72414;BME280;60995;52.154;4.498;2023-08-17T10:41:14;101995.00;;;29.73;94.42
72414;BME280;60995;52.154;4.498;2023-08-17T10:43:34;102010.56;;;28.58;99.36
72414;BME280;60995;52.154;4.498;2023-08-17T10:45:50;102004.09;;;28.13;100.00
72414;BME280;60995;52.154;4.498;2023-08-17T10:48:25;102008.72;;;27.94;100.00
72414;BME280;60995;52.154;4.498;2023-08-17T10:50:58;102002.25;;;28.76;99.84
72414;BME280;60995;52.154;4.498;2023-08-17T10:53:19;102012.88;;;27.78;100.00
72414;BME280;60995;52.154;4.498;2023-08-17T10:55:37;102002.25;;;28.76;100.00
72414;BME280;60995;52.154;4.498;2023-08-17T10:58:00;102004.56;;;28.98;100.00
72414;BME280;60995;52.154;4.498;2023-08-17T11:00:17;102007.81;;;27.68;100.00
72414;BME280;60995;52.154;4.498;2023-08-17T11:02:40;102010.53;;;28.14;100.00
72414;BME280;60995;52.154;4.498;2023-08-17T11:04:56;101998.44;;;28.70;100.00
72414;BME280;60995;52.154;4.498;2023-08-17T11:07:13;101993.03;;;29.74;98.88
72414;BME280;60995;52.154;4.498;2023-08-17T11:09:35;101987.47;;;30.40;93.28
72414;BME280;60995;52.154;4.498;2023-08-17T11:11:53;101980.13;;;30.03;94.37
72414;BME280;60995;52.154;4.498;2023-08-17T11:14:10;101984.78;;;29.79;94.88
72414;BME280;60995;52.154;4.498;2023-08-17T11:16:27;101996.44;;;27.24;100.00
72414;BME280;60995;52.154;4.498;2023-08-17T11:18:43;102020.97;;;26.02;100.00
72414;BME280;60995;52.154;4.498;2023-08-17T11:21:03;102033.28;;;25.52;100.00
72414;BME280;60995;52.154;4.498;2023-08-17T11:23:23;102050.38;;;25.49;100.00
72414;BME280;60995;52.154;4.498;2023-08-17T11:25:41;102041.16;;;26.84;100.00
72414;BME280;60995;52.154;4.498;2023-08-17T11:28:01;102011.63;;;27.74;100.00
72414;BME280;60995;52.154;4.498;2023-08-17T11:30:18;102017.66;;;27.26;100.00
72414;BME280;60995;52.154;4.498;2023-08-17T11:32:36;102008.25;;;28.29;100.00
72414;BME280;60995;52.154;4.498;2023-08-17T11:34:52;102003.78;;;28.47;100.00
72414;BME280;60995;52.154;4.498;2023-08-17T11:37:11;102008.88;;;28.57;100.00
72414;BME280;60995;52.154;4.498;2023-08-17T11:39:33;101993.53;;;29.40;100.00
72414;BME280;60995;52.154;4.498;2023-08-17T11:41:50;102015.56;;;27.60;100.00
72414;BME280;60995;52.154;4.498;2023-08-17T11:44:08;102020.06;;;27.08;100.00
72414;BME280;60995;52.154;4.498;2023-08-17T11:46:25;102025.25;;;26.98;100.00
72414;BME280;60995;52.154;4.498;2023-08-17T11:48:41;102030.59;;;25.86;100.00
72414;BME280;60995;52.154;4.498;2023-08-17T11:50:59;102027.34;;;27.16;100.00
72414;BME280;60995;52.154;4.498;2023-08-17T11:53:15;102005.78;;;28.14;100.00
72414;BME280;60995;52.154;4.498;2023-08-17T11:55:31;102002.16;;;27.82;100.00
72414;BME280;60995;52.154;4.498;2023-08-17T11:57:48;102000.44;;;26.83;100.00